Bacau, Romania
Current Conditions -  °F | °C
As of 12:00 AM on Saturday 20 Dec 2014 (Local Time) from LRBC Reporting Station
Moderate Fog Moderate Fog  
Wind Chill: 24°   Ceiling: 100
Heat Index: 34°   Visibility: 0.06mi
Dew Point: 34°   Wind: 14mph
Humidity: 100%   Direction: 150°SSE
Pressure: 29.97"   Gusts: NA
Location:  46.58°N, 26.92°E
Report Text: LRBC 192100Z AUTO 15012KT 0100 R34/0400N FG VV001 01/01 Q1015
Loading
Personal Weather Stations






























Interactive Weather Map New forecast layout! Learn more

10-Day Weather Forecast

Advertisements
Track Severe Weather on mobile